createdAt,value
2023-04-19T00:00:41.055Z,10.79
2023-04-19T00:01:41.102Z,10.79
2023-04-19T00:02:42.663Z,10.82
2023-04-19T00:03:41.152Z,10.79
2023-04-19T00:04:41.211Z,10.81
2023-04-19T00:05:41.047Z,10.82
2023-04-19T00:06:41.052Z,10.79
2023-04-19T00:07:41.058Z,10.81
2023-04-19T00:08:41.051Z,10.81
2023-04-19T00:09:41.800Z,10.81
2023-04-19T00:10:45.328Z,10.79
2023-04-19T00:11:47.439Z,10.78
2023-04-19T00:13:41.150Z,10.78
2023-04-19T00:14:41.061Z,10.78
2023-04-19T00:15:41.049Z,10.81
2023-04-19T00:16:41.126Z,10.77
2023-04-19T00:17:41.081Z,10.77
2023-04-19T00:18:41.051Z,10.82
2023-04-19T00:19:41.081Z,10.81
2023-04-19T00:20:41.047Z,10.83
2023-04-19T00:21:41.050Z,10.79
2023-04-19T00:22:41.061Z,10.8
2023-04-19T00:23:41.058Z,10.81
2023-04-19T00:24:41.078Z,10.77
2023-04-19T00:25:41.055Z,10.77
2023-04-19T00:26:41.054Z,10.8
2023-04-19T00:27:41.054Z,10.82
2023-04-19T00:28:41.048Z,10.78
2023-04-19T00:29:41.072Z,10.79
2023-04-19T00:30:41.899Z,10.76
2023-04-19T00:31:45.382Z,10.78
2023-04-19T00:32:47.537Z,10.78
2023-04-19T00:34:41.077Z,10.78
2023-04-19T00:35:41.074Z,10.74
2023-04-19T00:36:41.046Z,10.78
2023-04-19T00:37:41.054Z,10.81
2023-04-19T00:38:41.056Z,10.78
2023-04-19T00:39:41.056Z,10.76
2023-04-19T00:40:41.078Z,10.77
2023-04-19T00:41:41.056Z,10.8
2023-04-19T00:42:41.061Z,10.77
2023-04-19T00:43:41.060Z,10.81
2023-04-19T00:44:41.070Z,10.77
2023-04-19T00:45:41.063Z,10.77
2023-04-19T00:46:41.060Z,10.77
2023-04-19T00:47:41.082Z,10.76
2023-04-19T00:48:41.066Z,10.74
2023-04-19T00:49:41.063Z,10.75
2023-04-19T00:50:41.052Z,10.74
2023-04-19T00:51:41.958Z,10.72
2023-04-19T00:52:45.489Z,10.71
2023-04-19T00:53:47.641Z,10.69
2023-04-19T00:55:41.062Z,10.7
2023-04-19T00:56:41.046Z,10.71
2023-04-19T00:57:41.049Z,10.74
2023-04-19T00:58:41.051Z,10.7
2023-04-19T00:59:41.052Z,10.7
2023-04-19T01:00:41.042Z,10.67
2023-04-19T01:01:41.072Z,10.68
2023-04-19T01:02:41.217Z,10.7
2023-04-19T01:03:41.245Z,10.72
2023-04-19T01:04:41.059Z,10.69
2023-04-19T01:05:41.052Z,10.68
2023-04-19T01:06:41.057Z,10.65
2023-04-19T01:07:41.068Z,10.66
2023-04-19T01:08:41.053Z,10.66
2023-04-19T01:09:41.054Z,10.62
2023-04-19T01:10:41.045Z,10.59
2023-04-19T01:11:44.055Z,10.58
2023-04-19T01:12:42.038Z,10.57
2023-04-19T01:13:45.600Z,10.55
2023-04-19T01:14:47.728Z,10.54
2023-04-19T01:16:41.047Z,10.52
2023-04-19T01:17:41.115Z,10.49
2023-04-19T01:18:41.050Z,10.49
2023-04-19T01:19:41.055Z,10.48
2023-04-19T01:20:41.044Z,10.45
2023-04-19T01:21:41.049Z,10.43
2023-04-19T01:22:41.060Z,10.43
2023-04-19T01:23:41.175Z,10.43
2023-04-19T01:24:41.043Z,10.4
2023-04-19T01:25:41.042Z,10.4
2023-04-19T01:26:41.109Z,10.43
2023-04-19T01:27:41.056Z,10.4
2023-04-19T01:28:41.051Z,10.37
2023-04-19T01:29:41.050Z,10.37
2023-04-19T01:30:41.063Z,10.36
2023-04-19T01:31:41.071Z,10.35
2023-04-19T01:32:41.078Z,10.33
2023-04-19T01:33:42.213Z,10.32
2023-04-19T01:34:45.788Z,10.32
2023-04-19T01:35:48.687Z,10.31
2023-04-19T01:37:41.049Z,10.32
2023-04-19T01:38:41.049Z,10.3
2023-04-19T01:39:41.054Z,10.3
2023-04-19T01:40:41.066Z,10.32
2023-04-19T01:41:41.074Z,10.32
2023-04-19T01:42:41.045Z,10.25
2023-04-19T01:43:41.052Z,10.27
2023-04-19T01:44:41.044Z,10.25
2023-04-19T01:45:41.052Z,10.23
2023-04-19T01:46:41.090Z,10.22
2023-04-19T01:47:41.153Z,10.23
2023-04-19T01:48:41.059Z,10.22
2023-04-19T01:49:41.049Z,10.22
2023-04-19T01:50:41.048Z,10.24
2023-04-19T01:51:41.142Z,10.24
2023-04-19T01:52:41.052Z,10.21
2023-04-19T01:53:41.052Z,10.21
2023-04-19T01:54:41.058Z,10.14
2023-04-19T01:55:41.048Z,10.14
2023-04-19T01:56:43.639Z,10.09
2023-04-19T01:57:46.326Z,10.09
2023-04-19T01:59:41.075Z,10.08
2023-04-19T02:00:41.078Z,10.07
2023-04-19T02:01:41.108Z,10.06
2023-04-19T02:02:41.234Z,10.1
2023-04-19T02:03:41.285Z,10.1
2023-04-19T02:04:41.051Z,10.07
2023-04-19T02:05:41.050Z,10.07
2023-04-19T02:06:41.040Z,10.07
2023-04-19T02:07:41.060Z,10.06
2023-04-19T02:08:41.047Z,10.04
2023-04-19T02:09:41.062Z,10.04
2023-04-19T02:10:41.063Z,10.04
2023-04-19T02:11:41.054Z,10.02
2023-04-19T02:12:41.057Z,9.98
2023-04-19T02:13:41.048Z,9.98
2023-04-19T02:14:41.051Z,9.98
2023-04-19T02:15:41.048Z,9.96
2023-04-19T02:16:41.066Z,9.96
2023-04-19T02:17:43.415Z,9.94
2023-04-19T02:18:46.446Z,9.91
2023-04-19T02:20:41.056Z,9.89
2023-04-19T02:21:41.052Z,9.87
2023-04-19T02:22:41.067Z,9.88
2023-04-19T02:23:41.054Z,9.86
2023-04-19T02:24:41.046Z,9.88
2023-04-19T02:25:41.055Z,9.87
2023-04-19T02:26:41.056Z,9.84
2023-04-19T02:27:41.058Z,9.84
2023-04-19T02:28:41.061Z,9.84
2023-04-19T02:29:41.052Z,9.86
2023-04-19T02:30:41.062Z,9.83
2023-04-19T02:31:41.069Z,9.84
2023-04-19T02:32:41.072Z,9.81
2023-04-19T02:33:41.084Z,9.83
2023-04-19T02:34:41.061Z,9.81
2023-04-19T02:35:41.055Z,9.81
2023-04-19T02:36:41.050Z,9.76
2023-04-19T02:37:41.050Z,9.77
2023-04-19T02:38:43.471Z,9.77
2023-04-19T02:39:46.502Z,9.76
2023-04-19T02:41:41.054Z,9.77
2023-04-19T02:42:41.062Z,9.76
2023-04-19T02:43:41.054Z,9.75
2023-04-19T02:44:41.052Z,9.76
2023-04-19T02:45:41.182Z,9.76
2023-04-19T02:46:41.064Z,9.75
2023-04-19T02:47:41.050Z,9.74
2023-04-19T02:48:41.055Z,9.76
2023-04-19T02:49:41.055Z,9.74
2023-04-19T02:50:41.047Z,9.72
2023-04-19T02:51:41.044Z,9.71
2023-04-19T02:52:41.051Z,9.69
2023-04-19T02:53:41.044Z,9.71
2023-04-19T02:54:41.056Z,9.64
2023-04-19T02:55:41.045Z,9.65
2023-04-19T02:56:41.045Z,9.66
2023-04-19T02:57:41.052Z,9.62
2023-04-19T02:58:41.164Z,9.63
2023-04-19T02:59:43.566Z,9.61
2023-04-19T03:00:46.593Z,9.63
2023-04-19T03:02:41.204Z,9.6
2023-04-19T03:03:41.101Z,9.56
2023-04-19T03:04:41.052Z,9.58
2023-04-19T03:05:41.067Z,9.56
2023-04-19T03:06:41.055Z,9.5
2023-04-19T03:07:43.899Z,9.51
2023-04-19T03:08:41.048Z,9.47
2023-04-19T03:09:41.049Z,9.46
2023-04-19T03:10:41.066Z,9.5
2023-04-19T03:11:41.052Z,9.48
2023-04-19T03:12:41.051Z,9.47
2023-04-19T03:13:41.049Z,9.46
2023-04-19T03:14:41.056Z,9.42
2023-04-19T03:15:41.065Z,9.4
2023-04-19T03:16:41.051Z,9.42
2023-04-19T03:17:41.068Z,9.37
2023-04-19T03:18:41.045Z,9.39
2023-04-19T03:19:41.228Z,9.36
2023-04-19T03:20:43.869Z,9.36
2023-04-19T03:21:46.655Z,9.33
2023-04-19T03:23:41.057Z,9.33
2023-04-19T03:24:41.040Z,9.35
2023-04-19T03:25:41.037Z,9.35
2023-04-19T03:26:41.047Z,9.32
2023-04-19T03:27:41.046Z,9.27
2023-04-19T03:28:41.041Z,9.26
2023-04-19T03:29:41.036Z,9.26
2023-04-19T03:30:41.099Z,9.26
2023-04-19T03:31:41.094Z,9.25
2023-04-19T03:32:41.103Z,9.24
2023-04-19T03:33:41.040Z,9.23
2023-04-19T03:34:41.052Z,9.24
2023-04-19T03:35:41.048Z,9.2
2023-04-19T03:36:41.041Z,9.19
2023-04-19T03:37:41.040Z,9.19
2023-04-19T03:38:41.037Z,9.19
2023-04-19T03:39:41.028Z,9.19
2023-04-19T03:40:41.340Z,9.2
2023-04-19T03:41:43.551Z,9.17
2023-04-19T03:42:46.812Z,9.14
2023-04-19T03:44:41.052Z,9.12
2023-04-19T03:45:41.044Z,9.11
2023-04-19T03:46:41.112Z,9.1
2023-04-19T03:47:41.087Z,9.1
2023-04-19T03:48:41.115Z,9.13
2023-04-19T03:49:41.061Z,9.1
2023-04-19T03:50:41.041Z,9.07
2023-04-19T03:51:41.031Z,9.07
2023-04-19T03:52:41.046Z,9.08
2023-04-19T03:53:41.030Z,9.07
2023-04-19T03:54:41.052Z,9.04
2023-04-19T03:55:41.043Z,9
2023-04-19T03:56:41.021Z,8.99
2023-04-19T03:57:41.049Z,8.98
2023-04-19T03:58:44.030Z,8.93
2023-04-19T03:59:41.052Z,8.96
2023-04-19T04:00:41.027Z,8.95
2023-04-19T04:01:41.036Z,8.9
2023-04-19T04:02:42.927Z,8.89
2023-04-19T04:03:45.969Z,8.91
2023-04-19T04:05:41.169Z,8.83
2023-04-19T04:06:41.027Z,8.85
2023-04-19T04:07:41.045Z,8.81
2023-04-19T04:08:41.022Z,8.79
2023-04-19T04:09:41.044Z,8.79
2023-04-19T04:10:41.024Z,8.78
2023-04-19T04:11:41.027Z,8.77
2023-04-19T04:12:41.043Z,8.74
2023-04-19T04:13:41.028Z,8.72
2023-04-19T04:14:41.027Z,8.73
2023-04-19T04:15:41.034Z,8.68
2023-04-19T04:16:41.135Z,8.66
2023-04-19T04:17:41.066Z,8.63
2023-04-19T04:18:41.059Z,8.62
2023-04-19T04:19:41.053Z,8.64
2023-04-19T04:20:41.049Z,8.62
2023-04-19T04:21:41.029Z,8.57
2023-04-19T04:22:41.513Z,8.61
2023-04-19T04:23:44.673Z,8.63
2023-04-19T04:24:46.951Z,8.6
2023-04-19T04:26:41.041Z,8.57
2023-04-19T04:27:41.030Z,8.56
2023-04-19T04:28:41.025Z,8.57
2023-04-19T04:29:41.029Z,8.56
2023-04-19T04:30:41.032Z,8.55
2023-04-19T04:31:41.082Z,8.54
2023-04-19T04:32:41.188Z,8.52
2023-04-19T04:33:41.044Z,8.52
2023-04-19T04:34:41.037Z,8.49
2023-04-19T04:35:41.062Z,8.49
2023-04-19T04:36:41.067Z,8.5
2023-04-19T04:37:41.050Z,8.45
2023-04-19T04:38:41.045Z,8.46
2023-04-19T04:39:41.055Z,8.49
2023-04-19T04:40:41.115Z,8.46
2023-04-19T04:41:41.051Z,8.46
2023-04-19T04:42:41.060Z,8.42
2023-04-19T04:43:41.045Z,8.39
2023-04-19T04:44:41.355Z,8.38
2023-04-19T04:45:45.150Z,8.38
2023-04-19T04:46:47.212Z,8.36
2023-04-19T04:48:41.049Z,8.36
2023-04-19T04:49:41.055Z,8.37
2023-04-19T04:50:41.057Z,8.38
2023-04-19T04:51:41.051Z,8.36
2023-04-19T04:52:41.068Z,8.39
2023-04-19T04:53:41.046Z,8.4
2023-04-19T04:54:41.049Z,8.34
2023-04-19T04:55:41.052Z,8.34
2023-04-19T04:56:41.123Z,8.35
2023-04-19T04:57:41.073Z,8.31
2023-04-19T04:58:41.055Z,8.32
2023-04-19T04:59:41.041Z,8.27
2023-04-19T05:00:41.050Z,8.25
2023-04-19T05:01:41.072Z,8.19
2023-04-19T05:02:41.125Z,8.24
2023-04-19T05:03:41.047Z,8.22
2023-04-19T05:04:41.257Z,8.2
2023-04-19T05:05:42.296Z,8.16
2023-04-19T05:06:45.222Z,8.12
2023-04-19T05:07:47.223Z,8.04
2023-04-19T05:09:41.046Z,8.02
2023-04-19T05:10:41.040Z,8.03
2023-04-19T05:11:41.058Z,8.02
2023-04-19T05:12:41.048Z,8.03
2023-04-19T05:13:41.045Z,7.98
2023-04-19T05:14:41.063Z,7.97
2023-04-19T05:15:41.061Z,7.91
2023-04-19T05:16:41.063Z,7.92
2023-04-19T05:17:41.068Z,7.84
2023-04-19T05:18:41.053Z,7.82
2023-04-19T05:19:41.168Z,7.76
2023-04-19T05:20:41.057Z,7.76
2023-04-19T05:21:41.052Z,7.72
2023-04-19T05:22:41.074Z,7.76
2023-04-19T05:23:41.049Z,7.73
2023-04-19T05:24:44.443Z,7.76
2023-04-19T05:25:41.051Z,7.78
2023-04-19T05:26:41.511Z,7.77
2023-04-19T05:27:45.378Z,7.76
2023-04-19T05:28:48.054Z,7.75
2023-04-19T05:30:41.050Z,7.72
2023-04-19T05:31:41.059Z,7.76
2023-04-19T05:32:41.094Z,7.78
2023-04-19T05:33:41.045Z,7.76
2023-04-19T05:34:41.051Z,7.78
2023-04-19T05:35:41.042Z,7.78
2023-04-19T05:36:41.047Z,7.81
2023-04-19T05:37:41.061Z,7.79
2023-04-19T05:38:41.047Z,7.83
2023-04-19T05:39:44.859Z,7.86
2023-04-19T05:40:41.098Z,7.86
2023-04-19T05:41:41.053Z,7.86
2023-04-19T05:42:41.080Z,7.94
2023-04-19T05:43:41.047Z,7.97
2023-04-19T05:44:41.060Z,8.04
2023-04-19T05:45:41.120Z,8.01
2023-04-19T05:46:41.121Z,7.96
2023-04-19T05:47:41.690Z,7.95
2023-04-19T05:48:45.402Z,7.91
2023-04-19T05:49:48.208Z,7.9
2023-04-19T05:51:41.082Z,7.92
2023-04-19T05:52:41.163Z,7.94
2023-04-19T05:53:41.053Z,7.94
2023-04-19T05:54:41.045Z,7.89
2023-04-19T05:55:41.052Z,7.81
2023-04-19T05:56:41.046Z,7.89
2023-04-19T05:57:41.072Z,7.84
2023-04-19T05:58:41.056Z,7.84
2023-04-19T05:59:41.110Z,7.87
2023-04-19T06:00:41.043Z,7.88
2023-04-19T06:01:41.068Z,7.82
2023-04-19T06:02:41.344Z,7.81
2023-04-19T06:03:41.397Z,7.82
2023-04-19T06:04:41.521Z,7.84
2023-04-19T06:05:41.171Z,7.85
2023-04-19T06:06:41.061Z,7.87
2023-04-19T06:07:54.345Z,7.9
2023-04-19T06:08:41.041Z,7.9
2023-04-19T06:09:43.671Z,7.93
2023-04-19T06:10:54.418Z,7.91
2023-04-19T06:12:41.049Z,8.08
2023-04-19T06:13:41.055Z,8.2
2023-04-19T06:14:41.067Z,8.32
2023-04-19T06:15:41.043Z,8.47
2023-04-19T06:16:41.132Z,8.43
2023-04-19T06:17:41.092Z,8.43
2023-04-19T06:18:41.050Z,8.51
2023-04-19T06:19:41.067Z,8.55
2023-04-19T06:20:41.050Z,8.51
2023-04-19T06:21:41.046Z,8.38
2023-04-19T06:22:41.054Z,8.36
2023-04-19T06:23:41.051Z,8.36
2023-04-19T06:24:41.055Z,8.29
2023-04-19T06:25:41.076Z,8.39
2023-04-19T06:26:41.066Z,8.38
2023-04-19T06:27:41.296Z,8.4
2023-04-19T06:28:41.295Z,8.05
2023-04-19T06:29:41.828Z,8.06
2023-04-19T06:30:45.575Z,8.04
2023-04-19T06:31:47.644Z,8.06
2023-04-19T06:33:41.054Z,8.07
2023-04-19T06:34:41.044Z,8.12
2023-04-19T06:35:41.050Z,8.37
2023-04-19T06:36:41.050Z,8.56
2023-04-19T06:37:41.050Z,8.64
2023-04-19T06:38:41.042Z,8.72
2023-04-19T06:39:41.054Z,8.75
2023-04-19T06:40:41.055Z,8.73
2023-04-19T06:41:41.064Z,8.64
2023-04-19T06:42:41.063Z,8.64
2023-04-19T06:43:41.048Z,8.47
2023-04-19T06:44:41.050Z,8.58
2023-04-19T06:45:41.061Z,8.84
2023-04-19T06:46:41.052Z,8.99
2023-04-19T06:47:41.369Z,9.01
2023-04-19T06:48:41.086Z,8.9
2023-04-19T06:49:41.089Z,8.48
2023-04-19T06:50:41.959Z,8.37
2023-04-19T06:51:45.881Z,8.49
2023-04-19T06:52:48.552Z,8.62
2023-04-19T06:54:41.056Z,8.82
2023-04-19T06:55:41.041Z,8.94
2023-04-19T06:56:41.047Z,8.9
2023-04-19T06:57:41.046Z,8.76
2023-04-19T06:58:41.036Z,8.75
2023-04-19T06:59:41.047Z,8.68
2023-04-19T07:00:41.319Z,8.64
2023-04-19T07:01:41.241Z,8.52
2023-04-19T07:02:41.107Z,8.67
2023-04-19T07:03:41.202Z,8.54
2023-04-19T07:04:41.243Z,8.52
2023-04-19T07:05:41.046Z,8.57
2023-04-19T07:06:41.054Z,8.6
2023-04-19T07:07:41.057Z,8.87
2023-04-19T07:08:49.649Z,8.95
2023-04-19T07:09:41.043Z,8.82
2023-04-19T07:10:41.042Z,9.05
2023-04-19T07:11:42.219Z,9.14
2023-04-19T07:12:45.843Z,9.24
2023-04-19T07:13:47.970Z,9.29
2023-04-19T07:15:41.069Z,8.91
2023-04-19T07:16:41.067Z,8.95
2023-04-19T07:17:41.067Z,8.93
2023-04-19T07:18:41.069Z,9.01
2023-04-19T07:19:41.061Z,9.07
2023-04-19T07:20:41.046Z,8.99
2023-04-19T07:21:41.072Z,9.07
2023-04-19T07:22:41.049Z,9.08
2023-04-19T07:23:41.037Z,9.22
2023-04-19T07:24:41.043Z,9.15
2023-04-19T07:25:41.053Z,9.14
2023-04-19T07:26:41.050Z,9.26
2023-04-19T07:27:41.041Z,9.32
2023-04-19T07:28:41.081Z,9.43
2023-04-19T07:29:41.038Z,9.08
2023-04-19T07:30:41.047Z,8.87
2023-04-19T07:31:41.067Z,8.83
2023-04-19T07:32:42.411Z,8.77
2023-04-19T07:33:45.958Z,8.77
2023-04-19T07:34:48.859Z,8.67
2023-04-19T07:36:41.068Z,8.74
2023-04-19T07:37:41.041Z,8.81
2023-04-19T07:38:41.039Z,8.9
2023-04-19T07:39:41.051Z,8.89
2023-04-19T07:40:41.047Z,8.77
2023-04-19T07:41:41.050Z,8.82
2023-04-19T07:42:41.065Z,8.94
2023-04-19T07:43:41.135Z,9.04
2023-04-19T07:44:41.060Z,9.36
2023-04-19T07:45:41.050Z,9.3
2023-04-19T07:46:41.112Z,9.38
2023-04-19T07:47:41.059Z,9.39
2023-04-19T07:48:41.055Z,9.03
2023-04-19T07:49:41.047Z,9.19
2023-04-19T07:50:41.043Z,9.49
2023-04-19T07:51:41.049Z,9.55
2023-04-19T07:52:41.056Z,9.86
2023-04-19T07:53:41.050Z,9.62
2023-04-19T07:54:42.406Z,9.75
2023-04-19T07:55:45.919Z,9.62
2023-04-19T07:56:47.771Z,9.64
2023-04-19T07:57:41.061Z,9.75
2023-04-19T07:58:41.048Z,9.81
2023-04-19T07:59:41.047Z,10.08
2023-04-19T08:00:41.046Z,10.17
2023-04-19T08:01:41.137Z,10.31
2023-04-19T08:02:41.179Z,10.25
2023-04-19T08:03:41.113Z,10.38
2023-04-19T08:04:41.266Z,10.21
2023-04-19T08:05:41.047Z,10.24
2023-04-19T08:06:41.038Z,9.98
2023-04-19T08:07:41.050Z,9.85
2023-04-19T08:08:41.070Z,9.83
2023-04-19T08:09:41.077Z,9.68
2023-04-19T08:10:41.041Z,9.62
2023-04-19T08:11:41.045Z,9.62
2023-04-19T08:12:50.627Z,9.75
2023-04-19T08:13:42.120Z,9.77
2023-04-19T08:14:51.825Z,9.99
2023-04-19T08:17:47.410Z,10.07
2023-04-19T08:18:41.046Z,10.11
2023-04-19T08:19:41.085Z,10.13
2023-04-19T08:20:41.049Z,9.8
2023-04-19T08:21:42.055Z,9.84
2023-04-19T08:22:41.054Z,9.66
2023-04-19T08:23:48.187Z,9.59
2023-04-19T08:24:41.053Z,9.74
2023-04-19T08:25:41.057Z,9.7
2023-04-19T08:26:41.051Z,9.72
2023-04-19T08:27:41.046Z,9.46
2023-04-19T08:28:41.058Z,9.61
2023-04-19T08:29:41.052Z,9.7
2023-04-19T08:30:41.051Z,9.88
2023-04-19T08:31:41.078Z,10.1
2023-04-19T08:32:41.115Z,10.34
2023-04-19T08:33:41.059Z,10.42
2023-04-19T08:34:41.045Z,10.72
2023-04-19T08:35:41.063Z,10.72
2023-04-19T08:36:51.730Z,10.67
2023-04-19T08:37:46.110Z,10.79
2023-04-19T08:38:54.955Z,10.87
2023-04-19T08:39:41.067Z,10.75
2023-04-19T08:40:41.154Z,10.76
2023-04-19T08:41:41.048Z,10.42
2023-04-19T08:42:41.066Z,10.42
2023-04-19T08:43:41.686Z,10.16
2023-04-19T08:45:41.071Z,10.5
2023-04-19T08:46:41.055Z,10.62
2023-04-19T08:47:56.682Z,10.42
2023-04-19T08:48:41.082Z,10.3
2023-04-19T08:49:44.761Z,10.23
2023-04-19T08:50:52.403Z,10.16
2023-04-19T08:51:41.070Z,10.15
2023-04-19T08:52:52.287Z,10.17
2023-04-19T08:53:41.053Z,10.27
2023-04-19T08:54:41.057Z,10.19
2023-04-19T08:55:47.476Z,10.18
2023-04-19T08:56:41.096Z,10.21
2023-04-19T08:57:42.699Z,10.41
2023-04-19T08:59:47.590Z,10.6
2023-04-19T09:00:41.052Z,10.75
2023-04-19T09:01:44.811Z,10.99
2023-04-19T09:02:41.178Z,11.18
2023-04-19T09:03:55.933Z,11.38
2023-04-19T09:04:41.254Z,11.52
2023-04-19T09:05:41.124Z,11.38
2023-04-19T09:06:41.381Z,11.5
2023-04-19T09:07:41.052Z,11.4
2023-04-19T09:08:41.070Z,11.37
2023-04-19T09:09:55.880Z,11.09
2023-04-19T09:10:41.043Z,10.91
2023-04-19T09:11:41.046Z,10.85
2023-04-19T09:12:41.047Z,10.72
2023-04-19T09:13:41.048Z,10.91
2023-04-19T09:14:47.543Z,10.98
2023-04-19T09:15:41.206Z,10.81
2023-04-19T09:16:41.045Z,10.65
2023-04-19T09:17:41.072Z,10.9
2023-04-19T09:18:56.527Z,11.02
2023-04-19T09:19:46.122Z,11.07
2023-04-19T09:20:47.624Z,11.11
2023-04-19T09:21:41.062Z,11.36
2023-04-19T09:22:41.133Z,11.03
2023-04-19T09:23:41.047Z,11.2
2023-04-19T09:25:59.171Z,11.59
2023-04-19T09:26:41.064Z,11.6
2023-04-19T09:27:41.047Z,11.58
2023-04-19T09:28:41.052Z,11.73
2023-04-19T09:29:41.057Z,11.64
2023-04-19T09:30:50.598Z,11.78
2023-04-19T09:31:51.247Z,11.78
2023-04-19T09:32:41.080Z,11.79
2023-04-19T09:33:41.082Z,11.66
2023-04-19T09:34:41.037Z,11.6
2023-04-19T09:35:41.044Z,11.47
2023-04-19T09:36:41.064Z,11.65
2023-04-19T09:38:01.620Z,11.8
2023-04-19T09:38:41.043Z,11.69
2023-04-19T09:39:42.843Z,11.59
2023-04-19T09:40:45.798Z,11.56
2023-04-19T09:41:47.688Z,11.41
2023-04-19T09:45:13.044Z,11.61
2023-04-19T09:45:41.052Z,11.81
2023-04-19T09:46:41.110Z,12.06
2023-04-19T09:47:41.089Z,12.14
2023-04-19T09:48:41.038Z,12.3
2023-04-19T09:49:48.784Z,12.36
2023-04-19T09:50:53.966Z,12.49
2023-04-19T09:51:41.064Z,12.48
2023-04-19T09:52:41.043Z,12.24
2023-04-19T09:53:41.050Z,12.04
2023-04-19T09:54:41.051Z,12.15
2023-04-19T09:55:48.835Z,11.83
2023-04-19T09:56:41.048Z,11.95
2023-04-19T09:57:41.039Z,12.06
2023-04-19T09:58:50.949Z,12.38
2023-04-19T09:59:41.043Z,12.4
2023-04-19T10:00:49.008Z,12.74
2023-04-19T10:01:46.059Z,12.47
2023-04-19T10:02:50.109Z,12.79
2023-04-19T10:03:41.195Z,12.69
2023-04-19T10:05:41.100Z,13.05
2023-04-19T10:06:58.759Z,13.17
2023-04-19T10:07:41.072Z,13.02
2023-04-19T10:08:41.053Z,13.02
2023-04-19T10:09:52.027Z,12.84
2023-04-19T10:10:45.467Z,12.93
2023-04-19T10:11:41.497Z,12.39
2023-04-19T10:12:58.931Z,12.47
2023-04-19T10:13:41.055Z,12.81
2023-04-19T10:14:41.150Z,13.13
2023-04-19T10:15:51.005Z,13.09
2023-04-19T10:16:41.058Z,13.11
2023-04-19T10:17:41.094Z,12.85
2023-04-19T10:18:41.051Z,12.9
2023-04-19T10:19:41.052Z,12.92
2023-04-19T10:20:41.085Z,12.52
2023-04-19T10:21:43.158Z,12.8
2023-04-19T10:22:46.404Z,12.83
2023-04-19T10:23:48.036Z,12.53
2023-04-19T10:24:41.862Z,12.8
2023-04-19T10:25:41.052Z,13.05
2023-04-19T10:26:41.038Z,13.26
2023-04-19T10:27:41.169Z,13.09
2023-04-19T10:28:41.064Z,12.76
2023-04-19T10:29:41.058Z,12.08
2023-04-19T10:30:41.084Z,12.24
2023-04-19T10:31:41.078Z,12.58
2023-04-19T10:32:41.064Z,12.88
2023-04-19T10:33:41.068Z,13.25
2023-04-19T10:34:41.065Z,13.27
2023-04-19T10:35:41.054Z,13.55
2023-04-19T10:36:41.041Z,13.56
2023-04-19T10:37:41.056Z,13.3
2023-04-19T10:38:41.085Z,13.4
2023-04-19T10:39:41.046Z,13.52
2023-04-19T10:40:41.046Z,13.56
2023-04-19T10:41:41.042Z,13.46
2023-04-19T10:42:43.215Z,13.35
2023-04-19T10:43:46.162Z,13.71
2023-04-19T10:44:48.076Z,13.84
2023-04-19T10:45:41.093Z,13.62
2023-04-19T10:46:41.059Z,13.4
2023-04-19T10:47:41.064Z,13.06
2023-04-19T10:48:41.051Z,12.99
2023-04-19T10:49:41.068Z,13.07
2023-04-19T10:50:41.093Z,12.91
2023-04-19T10:51:41.056Z,13.07
2023-04-19T10:52:41.048Z,13.56
2023-04-19T10:53:41.049Z,13.85
2023-04-19T10:54:41.049Z,13.98
2023-04-19T10:55:41.063Z,13.35
2023-04-19T10:56:41.053Z,13.77
2023-04-19T10:57:41.047Z,13.83
2023-04-19T10:58:41.059Z,14.15
2023-04-19T10:59:41.048Z,14.4
2023-04-19T11:00:41.083Z,14.36
2023-04-19T11:01:41.149Z,14.24
2023-04-19T11:02:41.122Z,13.97
2023-04-19T11:03:41.318Z,13.79
2023-04-19T11:04:43.378Z,13.5
2023-04-19T11:05:46.760Z,13.58
2023-04-19T11:07:41.050Z,14.17
2023-04-19T11:08:41.237Z,14.04
2023-04-19T11:09:41.056Z,14.03
2023-04-19T11:10:41.354Z,13.9
2023-04-19T11:11:41.058Z,14.03
2023-04-19T11:12:41.057Z,14.29
2023-04-19T11:13:41.058Z,14.18
2023-04-19T11:14:41.058Z,13.76
2023-04-19T11:15:41.084Z,13.4
2023-04-19T11:16:45.942Z,13.33
2023-04-19T11:17:41.061Z,13.53
2023-04-19T11:18:41.047Z,13.53
2023-04-19T11:19:41.068Z,13.76
2023-04-19T11:20:41.102Z,13.98
2023-04-19T11:21:41.077Z,13.94
2023-04-19T11:22:41.072Z,13.69
2023-04-19T11:23:41.037Z,13.77
2023-04-19T11:24:41.043Z,13.82
2023-04-19T11:25:43.447Z,13.75
2023-04-19T11:26:46.502Z,13.93
2023-04-19T11:28:41.071Z,14.39
2023-04-19T11:29:41.053Z,14.68
2023-04-19T11:30:41.105Z,14.35
2023-04-19T11:31:41.089Z,14.58
2023-04-19T11:32:41.089Z,14.76
2023-04-19T11:33:41.038Z,15
2023-04-19T11:34:41.042Z,14.81
2023-04-19T11:35:41.051Z,14.91
2023-04-19T11:36:41.064Z,14.94
2023-04-19T11:37:41.041Z,14.86
2023-04-19T11:38:41.036Z,14.74
2023-04-19T11:39:41.051Z,14.33
2023-04-19T11:40:41.055Z,14.47
2023-04-19T11:41:41.087Z,14.01
2023-04-19T11:42:41.073Z,14.13
2023-04-19T11:43:41.055Z,14.09
2023-04-19T11:44:41.047Z,14.27
2023-04-19T11:45:41.061Z,14.48
2023-04-19T11:46:43.600Z,14.49
2023-04-19T11:47:46.679Z,14.35
2023-04-19T11:49:41.061Z,14.45
2023-04-19T11:50:41.057Z,14.57
2023-04-19T11:51:41.051Z,14.64
2023-04-19T11:52:41.052Z,14.61
2023-04-19T11:53:41.072Z,14.2
2023-04-19T11:54:41.053Z,14.12
2023-04-19T11:55:41.051Z,14.21
2023-04-19T11:56:41.045Z,14.1
2023-04-19T11:57:42.055Z,13.91
2023-04-19T11:58:41.051Z,14.23
2023-04-19T11:59:41.052Z,14.38
2023-04-19T12:00:41.071Z,14.39
2023-04-19T12:01:41.040Z,14.5
2023-04-19T12:02:41.153Z,14.3
2023-04-19T12:03:41.148Z,14.57
2023-04-19T12:04:41.247Z,14.68
2023-04-19T12:05:41.159Z,14.63
2023-04-19T12:06:41.259Z,14.86
2023-04-19T12:07:43.755Z,15.19
2023-04-19T12:08:46.596Z,15.3
2023-04-19T12:10:41.043Z,15.03
2023-04-19T12:11:41.052Z,15.3
2023-04-19T12:12:41.238Z,14.87
2023-04-19T12:13:41.272Z,14.62
2023-04-19T12:14:41.327Z,14.94
2023-04-19T12:15:41.053Z,14.8
2023-04-19T12:16:41.052Z,14.72
2023-04-19T12:17:51.186Z,14.78
2023-04-19T12:18:41.045Z,14.57
2023-04-19T12:19:41.047Z,14.53
2023-04-19T12:20:41.053Z,14.38
2023-04-19T12:21:41.042Z,13.97
2023-04-19T12:22:41.043Z,14.2
2023-04-19T12:23:41.057Z,14.11
2023-04-19T12:24:41.071Z,14.39
2023-04-19T12:25:41.112Z,14.56
2023-04-19T12:26:41.102Z,14.68
2023-04-19T12:27:41.493Z,14.95
2023-04-19T12:28:44.374Z,15.02
2023-04-19T12:29:46.672Z,15.04
2023-04-19T12:31:41.368Z,14.89
2023-04-19T12:32:41.393Z,14.86
2023-04-19T12:33:41.361Z,15.04
2023-04-19T12:34:41.056Z,15.15
2023-04-19T12:35:41.087Z,15.01
2023-04-19T12:36:41.049Z,14.88
2023-04-19T12:37:41.052Z,14.34
2023-04-19T12:38:41.102Z,14.35
2023-04-19T12:39:41.073Z,14.3
2023-04-19T12:40:41.316Z,14.46
2023-04-19T12:41:41.076Z,14.34
2023-04-19T12:42:41.044Z,14.55
2023-04-19T12:43:41.053Z,14.28
2023-04-19T12:44:41.063Z,14.2
2023-04-19T12:45:41.063Z,14.19
2023-04-19T12:46:41.094Z,14.38
2023-04-19T12:47:41.072Z,14.25
2023-04-19T12:48:41.516Z,14.26
2023-04-19T12:49:43.633Z,14.29
2023-04-19T12:50:46.882Z,14.55
2023-04-19T12:52:41.039Z,15.07
2023-04-19T12:53:41.042Z,14.86
2023-04-19T12:54:41.050Z,15.07
2023-04-19T12:55:41.063Z,14.96
2023-04-19T12:56:41.144Z,15.5
2023-04-19T12:57:41.053Z,15.6
2023-04-19T12:58:41.051Z,15.48
2023-04-19T12:59:41.117Z,15.67
2023-04-19T13:00:41.064Z,15.77
2023-04-19T13:01:41.073Z,16.01
2023-04-19T13:02:41.087Z,16.02
2023-04-19T13:03:41.143Z,16.05
2023-04-19T13:04:41.177Z,15.77
2023-04-19T13:05:41.072Z,15.48
2023-04-19T13:06:41.071Z,15.26
2023-04-19T13:07:41.042Z,15.17
2023-04-19T13:08:46.450Z,14.71
2023-04-19T13:09:41.158Z,14.38
2023-04-19T13:10:43.853Z,14.43
2023-04-19T13:11:47.041Z,14.83
2023-04-19T13:13:41.058Z,15.58
2023-04-19T13:14:41.046Z,15.65
2023-04-19T13:15:41.073Z,15.33
2023-04-19T13:16:41.054Z,15.21
2023-04-19T13:17:41.137Z,15.35
2023-04-19T13:18:41.052Z,15.7
2023-04-19T13:19:41.063Z,15.68
2023-04-19T13:20:41.155Z,15.83
2023-04-19T13:21:41.042Z,15.55
2023-04-19T13:22:41.050Z,15.43
2023-04-19T13:23:41.039Z,15.34
2023-04-19T13:24:41.079Z,15.61
2023-04-19T13:25:41.057Z,15.37
2023-04-19T13:26:41.089Z,15.07
2023-04-19T13:27:41.057Z,15.02
2023-04-19T13:28:41.060Z,15.31
2023-04-19T13:29:41.059Z,15.26
2023-04-19T13:30:41.145Z,14.91
2023-04-19T13:31:44.810Z,14.59
2023-04-19T13:32:47.114Z,14.47
2023-04-19T13:34:41.070Z,14.29
2023-04-19T13:35:41.051Z,14.35
2023-04-19T13:36:41.064Z,14.44
2023-04-19T13:37:41.058Z,14.52
2023-04-19T13:38:41.048Z,14.66
2023-04-19T13:39:41.053Z,14.49
2023-04-19T13:40:41.054Z,14.52
2023-04-19T13:41:41.056Z,14.8
2023-04-19T13:42:41.063Z,14.87
2023-04-19T13:43:41.044Z,14.51
2023-04-19T13:44:41.058Z,14.76